UIH weather

Phu Cat Airport
Quy Nohn, Binh Dinh Province, Vietnam

Public forecast

Using degrees Celsius for public forecast. Weather courtesy of forecast.io.

METAR (pilot weather report)

Closest report is Cam Ranh Airport, 117.9 nm (218.4 km) S. Retrieved 2019/04/21 05:30 UTC (16 minutes ago):

VVCR 210530Z 17017KT 9999 FEW017 36/23 Q1007 NOSIG

TAF (pilot weather forecast)

Forecast is more than 12 hours old.

Closest forecast is Cam Ranh Airport, 117.9 nm (218.4 km) S. Retrieved 2019/04/20 00:00 UTC (1 day ago):

TAF VVCR 202300Z 2100/2124 22012KT 9999 SCT015